Time;durP1;ratioP1;P1;durP2;ratioP2;P2;SDS_P1;SDS_P2;PMS_P1;PMS_P2;Temp;Humidity;BMP_temperature;BMP_pressure;BME280_temperature;BME280_humidity;BME280_pressure;Samples;Min_cycle;Max_cycle;Signal;HPM_P1;HPM_P2
2022/01/05 00:00:15;;;;;;;0.00;0.00;;;;;;;6.68;73.66;98451.84;5090911;28;20047;-72
2022/01/05 00:02:40;;;;;;;0.00;0.00;;;;;;;6.64;72.92;98464.06;5101141;28;20551;-73
2022/01/05 00:05:07;;;;;;;0.00;0.00;;;;;;;6.56;72.89;98465.38;5092736;28;20036;-73
2022/01/05 00:07:33;;;;;;;0.00;0.00;;;;;;;6.53;72.78;98455.28;5090851;28;20666;-73
2022/01/05 00:09:59;;;;;;;0.45;0.45;;;;;;;6.42;72.92;98451.81;5090354;28;20119;-73
2022/01/05 00:12:24;;;;;;;0.00;0.00;;;;;;;6.32;72.72;98451.78;5090971;28;20020;-73
2022/01/05 00:14:50;;;;;;;0.00;0.00;;;;;;;6.33;73.12;98451.50;5091111;28;20107;-73
2022/01/05 00:17:15;;;;;;;0.00;0.00;;;;;;;6.32;73.32;98457.09;5092421;28;20020;-73
2022/01/05 00:19:41;;;;;;;0.00;0.00;;;;;;;6.25;72.99;98457.34;5095333;28;20028;-73
2022/01/05 00:22:06;;;;;;;0.00;0.00;;;;;;;6.22;72.97;98458.66;5094828;28;20024;-73
2022/01/05 00:24:32;;;;;;;0.00;0.00;;;;;;;6.09;73.82;98445.88;5094930;28;20035;-73
2022/01/05 00:26:58;;;;;;;0.00;0.00;;;;;;;6.13;73.41;98460.25;5076892;28;20107;-73
2022/01/05 00:29:23;;;;;;;0.00;0.00;;;;;;;5.99;73.84;98437.88;5056476;28;20028;-74
2022/01/05 00:31:49;;;;;;;0.00;0.00;;;;;;;6.01;73.77;98457.81;5056293;28;20483;-76
2022/01/05 00:34:14;;;;;;;0.00;0.00;;;;;;;5.97;74.01;98459.38;5057303;28;20035;-74
2022/01/05 00:36:40;;;;;;;0.00;0.00;;;;;;;5.94;73.51;98467.84;5056547;28;20021;-75
2022/01/05 00:39:06;;;;;;;0.30;0.30;;;;;;;5.86;73.97;98463.81;5073939;28;20506;-75
2022/01/05 00:41:31;;;;;;;0.00;0.00;;;;;;;5.80;74.58;98453.44;5056376;28;20033;-74
2022/01/05 00:43:57;;;;;;;0.00;0.00;;;;;;;5.76;74.93;98467.22;5073928;28;20039;-74
2022/01/05 00:46:22;;;;;;;0.00;0.00;;;;;;;5.72;74.99;98473.31;5086420;28;20036;-75
2022/01/05 00:48:48;;;;;;;0.00;0.00;;;;;;;5.65;74.62;98468.25;5070125;28;20051;-75
2022/01/05 00:51:15;;;;;;;0.00;0.00;;;;;;;5.59;75.32;98459.47;5087994;28;20630;-74
2022/01/05 00:53:41;;;;;;;0.00;0.00;;;;;;;5.61;75.86;98469.81;5069683;28;20032;-74
2022/01/05 00:56:07;;;;;;;0.00;0.00;;;;;;;5.55;75.66;98463.66;5055757;28;20460;-74
2022/01/05 00:58:32;;;;;;;0.00;0.00;;;;;;;5.58;75.96;98472.97;5073835;28;20099;-74
2022/01/05 01:00:58;;;;;;;0.00;0.00;;;;;;;5.55;76.13;98468.19;5083310;28;20074;-75
2022/01/05 01:03:23;;;;;;;0.10;0.10;;;;;;;5.54;76.33;98459.44;5071794;28;20119;-76
2022/01/05 01:05:48;;;;;;;0.00;0.00;;;;;;;5.50;76.49;98450.38;5056051;28;20483;-77
2022/01/05 01:08:14;;;;;;;0.00;0.00;;;;;;;5.52;76.71;98458.88;5060273;28;20257;-77
2022/01/05 01:10:40;;;;;;;0.00;0.00;;;;;;;5.44;76.91;98446.09;5076182;28;20039;-75
2022/01/05 01:13:05;;;;;;;0.00;0.00;;;;;;;5.44;77.21;98441.63;5055524;28;20036;-74
2022/01/05 01:15:31;;;;;;;0.08;0.08;;;;;;;5.53;76.97;98457.84;5055754;28;20021;-74
2022/01/05 01:17:56;;;;;;;0.10;0.10;;;;;;;5.50;76.78;98458.34;5074126;28;20559;-73
2022/01/05 01:20:22;;;;;;;0.00;0.00;;;;;;;5.52;76.78;98458.88;5055733;28;20445;-73
2022/01/05 01:22:48;;;;;;;0.00;0.00;;;;;;;5.51;76.60;98451.97;5055740;28;20666;-73
2022/01/05 01:25:14;;;;;;;0.00;0.00;;;;;;;5.49;76.99;98442.69;5055432;28;20077;-73
2022/01/05 01:27:43;;;;;;;0.10;0.10;;;;;;;5.46;76.75;98444.00;5073951;28;20123;-73
2022/01/05 01:30:09;;;;;;;;;;;;;;;5.53;77.20;98462.31;5055000;28;20024;-73
2022/01/05 01:32:35;;;;;;;0.00;0.00;;;;;;;5.47;76.90;98448.25;5075229;28;19912;-73
2022/01/05 01:35:01;;;;;;;0.00;0.00;;;;;;;5.43;76.75;98436.53;5093422;28;20459;-74
2022/01/05 01:37:26;;;;;;;0.00;0.00;;;;;;;5.42;77.36;98441.06;5073691;28;20123;-74
2022/01/05 01:39:52;;;;;;;0.00;0.00;;;;;;;5.44;77.40;98444.25;5093312;28;20099;-73
2022/01/05 01:42:17;;;;;;;0.00;0.00;;;;;;;5.37;77.71;98432.28;5061640;28;20055;-73
2022/01/05 01:44:43;;;;;;;0.00;0.00;;;;;;;5.36;77.16;98423.53;5073237;28;20484;-74
2022/01/05 01:47:08;;;;;;;0.00;0.00;;;;;;;5.34;77.68;98420.31;5072798;28;20040;-74
2022/01/05 01:49:34;;;;;;;0.00;0.00;;;;;;;5.44;77.67;98425.69;5059143;28;20051;-74
2022/01/05 01:51:59;;;;;;;0.00;0.00;;;;;;;5.45;77.37;98426.50;5074955;28;20043;-72
2022/01/05 01:54:26;;;;;;;0.00;0.00;;;;;;;5.45;77.36;98421.19;5092696;28;20032;-73
2022/01/05 01:56:52;;;;;;;0.10;0.10;;;;;;;5.45;77.55;98423.84;5092455;28;20507;-75
2022/01/05 01:59:17;;;;;;;0.00;0.00;;;;;;;5.44;77.39;98419.59;5074544;28;20035;-75
2022/01/05 02:01:43;;;;;;;0.00;0.00;;;;;;;5.43;77.69;98415.34;5091945;28;20028;-75
2022/01/05 02:04:08;;;;;;;0.00;0.00;;;;;;;5.39;77.56;98401.78;5092794;28;20042;-72
2022/01/05 02:06:34;;;;;;;0.00;0.00;;;;;;;5.29;77.55;98393.78;5092564;28;20506;-72
2022/01/05 02:09:00;;;;;;;0.00;0.00;;;;;;;5.41;77.52;98398.91;5084831;28;20488;-72
2022/01/05 02:11:25;;;;;;;0.00;0.00;;;;;;;5.33;78.12;98388.78;5072738;28;20028;-73
2022/01/05 02:13:51;;;;;;;0.00;0.00;;;;;;;5.33;78.29;98397.50;5054597;28;20071;-74
2022/01/05 02:16:28;;;;;;;0.00;0.00;;;;;;;5.35;78.55;98391.97;5072108;28;20041;-73
2022/01/05 02:19:00;;;;;;;0.00;0.00;;;;;;;5.25;78.78;98385.56;5072593;28;20064;-72
2022/01/05 02:21:28;;;;;;;0.05;0.05;;;;;;;5.30;78.74;98400.69;5072487;28;20024;-73
2022/01/05 02:23:54;;;;;;;0.00;0.00;;;;;;;5.23;79.57;98376.25;5080262;28;20469;-74
2022/01/05 02:26:19;;;;;;;0.05;0.05;;;;;;;5.29;79.20;98402.53;5092111;28;20102;-76
2022/01/05 02:28:46;;;;;;;0.00;0.00;;;;;;;5.32;79.55;98398.56;5074590;28;20102;-76
2022/01/05 02:31:12;;;;;;;0.00;0.00;;;;;;;5.34;79.07;98398.31;5060871;28;20060;-75
2022/01/05 02:33:40;;;;;;;0.00;0.00;;;;;;;5.25;79.50;98387.41;5054274;28;20475;-72
2022/01/05 02:36:06;;;;;;;0.00;0.00;;;;;;;5.36;79.15;98398.84;5071943;28;20039;-72
2022/01/05 02:38:32;;;;;;;0.00;0.00;;;;;;;5.35;79.12;98389.31;5072129;28;20085;-72
2022/01/05 02:41:05;;;;;;;0.00;0.00;;;;;;;5.36;79.36;98380.28;5070948;28;20040;-73
2022/01/05 02:43:31;;;;;;;0.00;0.00;;;;;;;5.42;79.36;98393.34;5072016;28;20099;-73
2022/01/05 02:45:56;;;;;;;0.00;0.00;;;;;;;5.46;79.27;98388.31;5071765;28;20032;-73
2022/01/05 02:48:22;;;;;;;0.00;0.00;;;;;;;5.44;79.21;98387.75;5081701;28;20073;-73
2022/01/05 02:50:47;;;;;;;0.00;0.00;;;;;;;5.51;79.07;98388.31;5086335;28;20120;-73
2022/01/05 02:53:13;;;;;;;0.00;0.00;;;;;;;5.54;78.80;98385.16;5090819;28;20067;-73
2022/01/05 02:55:38;;;;;;;0.00;0.00;;;;;;;5.55;78.65;98384.09;5091496;28;20673;-73
2022/01/05 02:58:03;;;;;;;0.00;0.00;;;;;;;5.61;78.47;98388.38;5091818;28;20028;-73
2022/01/05 03:00:29;;;;;;;0.00;0.00;;;;;;;5.60;78.45;98391.28;5073789;28;20028;-73
2022/01/05 03:02:54;;;;;;;0.00;0.00;;;;;;;5.60;78.44;98381.47;5091457;28;20136;-73
2022/01/05 03:05:20;;;;;;;0.00;0.00;;;;;;;5.59;78.07;98371.91;5090402;28;20036;-73
2022/01/05 03:07:45;;;;;;;0.00;0.00;;;;;;;5.61;77.88;98371.66;5088274;28;20025;-74
2022/01/05 03:10:13;;;;;;;0.00;0.00;;;;;;;5.58;78.22;98367.66;5087784;28;20035;-73
2022/01/05 03:12:41;;;;;;;0.00;0.00;;;;;;;5.51;77.93;98361.81;5073189;28;20032;-71
2022/01/05 03:15:08;;;;;;;0.00;0.00;;;;;;;5.48;77.62;98353.56;5091132;28;20035;-73
2022/01/05 03:17:33;;;;;;;0.00;0.00;;;;;;;5.57;77.76;98378.53;5091685;28;20032;-73
2022/01/05 03:19:59;;;;;;;0.00;0.00;;;;;;;5.51;77.62;98380.38;5090119;28;20494;-73
2022/01/05 03:22:25;;;;;;;0.00;0.00;;;;;;;5.53;77.36;98380.91;5091631;28;20028;-73
2022/01/05 03:24:50;;;;;;;0.00;0.00;;;;;;;5.48;77.61;98377.44;5091285;28;20036;-74
2022/01/05 03:27:16;;;;;;;0.00;0.00;;;;;;;5.50;77.47;98384.06;5069496;28;20020;-73
2022/01/05 03:29:41;;;;;;;0.00;0.00;;;;;;;5.44;77.42;98370.00;5091246;28;20108;-73
2022/01/05 03:32:07;;;;;;;0.00;0.00;;;;;;;5.41;78.33;98372.38;5091130;28;20485;-73
2022/01/05 03:34:33;;;;;;;0.00;0.00;;;;;;;5.46;78.23;98375.06;5091289;28;20062;-73
2022/01/05 03:36:59;;;;;;;0.00;0.00;;;;;;;5.41;78.58;98359.91;5090579;28;20036;-73
2022/01/05 03:39:26;;;;;;;0.00;0.00;;;;;;;5.45;78.70;98368.94;5089977;28;20036;-73
2022/01/05 03:41:52;;;;;;;0.00;0.00;;;;;;;5.45;78.63;98366.28;5089344;28;20111;-73
2022/01/05 03:44:17;;;;;;;0.00;0.00;;;;;;;5.42;78.31;98364.16;5070814;28;20120;-75
2022/01/05 03:46:43;;;;;;;0.00;0.00;;;;;;;5.40;78.17;98354.88;5085660;28;20032;-75
2022/01/05 03:49:08;;;;;;;0.00;0.00;;;;;;;5.37;79.01;98361.50;5072712;28;20051;-75
2022/01/05 03:51:34;;;;;;;0.00;0.00;;;;;;;5.39;79.10;98355.91;5090601;28;20024;-73
2022/01/05 03:53:59;;;;;;;0.00;0.00;;;;;;;5.40;79.41;98363.59;5072481;28;20119;-73
2022/01/05 03:56:24;;;;;;;0.00;0.00;;;;;;;5.43;79.82;98362.28;5072778;28;20031;-72
2022/01/05 03:58:50;;;;;;;0.00;0.00;;;;;;;5.35;79.67;98353.00;5091118;28;20028;-72
2022/01/05 04:01:15;;;;;;;0.00;0.00;;;;;;;5.35;79.68;98355.63;5083781;28;20039;-72
2022/01/05 04:03:41;;;;;;;0.00;0.00;;;;;;;5.39;79.79;98359.34;5070952;28;20538;-72
2022/01/05 04:06:06;;;;;;;0.00;0.00;;;;;;;5.38;80.64;98355.13;5052944;28;20028;-74
2022/01/05 04:08:32;;;;;;;0.00;0.00;;;;;;;5.37;79.69;98358.03;5070894;28;20051;-73
2022/01/05 04:10:57;;;;;;;0.00;0.00;;;;;;;5.35;79.20;98347.69;5070391;28;20028;-73
2022/01/05 04:13:23;;;;;;;0.00;0.00;;;;;;;5.31;79.22;98335.19;5052323;28;20115;-72
2022/01/05 04:15:48;;;;;;;0.00;0.00;;;;;;;5.38;78.63;98346.38;5071004;28;20028;-73
2022/01/05 04:18:14;;;;;;;0.00;0.00;;;;;;;5.29;78.19;98344.19;5070544;28;20501;-72
2022/01/05 04:20:40;;;;;;;0.00;0.00;;;;;;;5.29;77.99;98354.03;5052793;28;20028;-72
2022/01/05 04:23:05;;;;;;;0.00;0.00;;;;;;;5.20;77.53;98345.78;5052490;28;20516;-72
2022/01/05 04:25:32;;;;;;;0.38;0.38;;;;;;;5.24;77.46;98359.31;5052648;28;20127;-73
2022/01/05 04:27:58;;;;;;;0.00;0.00;;;;;;;5.17;77.79;98348.13;5070418;28;20493;-74
2022/01/05 04:30:23;;;;;;;0.00;0.00;;;;;;;5.17;77.20;98369.34;5052423;28;20115;-73
2022/01/05 04:32:49;;;;;;;0.00;0.00;;;;;;;5.16;76.98;98365.88;5070639;28;20028;-72
2022/01/05 04:35:15;;;;;;;0.00;0.00;;;;;;;5.13;77.07;98366.41;5070595;28;20039;-75
2022/01/05 04:37:41;;;;;;;0.10;0.10;;;;;;;5.05;76.87;98356.28;5081666;28;20034;-74
2022/01/05 04:40:09;;;;;;;0.00;0.00;;;;;;;5.05;76.53;98365.00;5084367;28;20028;-77
2022/01/05 04:42:34;;;;;;;0.10;0.10;;;;;;;5.00;76.18;98372.16;5072721;28;20067;-78
2022/01/05 04:45:00;;;;;;;0.00;0.00;;;;;;;4.93;75.91;98373.19;5085909;28;20064;-75
2022/01/05 04:47:25;;;;;;;0.00;0.00;;;;;;;4.86;75.44;98367.31;5068501;28;20503;-73
2022/01/05 04:49:51;;;;;;;0.00;0.00;;;;;;;4.87;76.18;98381.34;5060443;28;20541;-73
2022/01/05 04:52:16;;;;;;;0.00;0.00;;;;;;;4.80;76.43;98373.63;5072239;28;20530;-74
2022/01/05 04:54:41;;;;;;;0.00;0.00;;;;;;;4.69;76.91;98358.69;5071920;28;20475;-74
2022/01/05 04:57:07;;;;;;;0.00;0.00;;;;;;;4.75;77.31;98373.59;5069178;28;20119;-74
2022/01/05 04:59:35;;;;;;;0.00;0.00;;;;;;;4.69;78.55;98379.88;5052340;28;20048;-75
2022/01/05 05:02:01;;;;;;;0.00;0.00;;;;;;;4.61;79.13;98386.44;5051741;28;20031;-77
2022/01/05 05:04:27;;;;;;;0.00;0.00;;;;;;;4.60;79.12;98388.31;5070411;28;20036;-81
2022/01/05 05:06:52;;;;;;;0.00;0.00;;;;;;;4.63;79.58;98389.66;5076030;28;20130;-79
2022/01/05 05:09:18;;;;;;;0.00;0.00;;;;;;;4.61;79.59;98378.50;5093655;28;20035;-77
2022/01/05 05:11:44;;;;;;;0.63;0.63;;;;;;;4.54;79.71;98375.25;5071735;28;20073;-76
2022/01/05 05:14:10;;;;;;;0.00;0.00;;;;;;;4.57;80.14;98380.06;5055554;28;20029;-74
2022/01/05 05:16:38;;;;;;;0.00;0.00;;;;;;;4.51;80.11;98371.28;5076310;28;20020;-76
2022/01/05 05:19:04;;;;;;;0.00;0.00;;;;;;;4.52;79.59;98366.75;5081200;28;20031;-76
2022/01/05 05:21:29;;;;;;;0.00;0.00;;;;;;;4.57;79.28;98383.50;5093877;28;20050;-73
2022/01/05 05:23:55;;;;;;;0.00;0.00;;;;;;;4.57;79.19;98380.84;5060834;28;20029;-73
2022/01/05 05:26:20;;;;;;;0.00;0.00;;;;;;;4.52;79.03;98372.88;5055457;28;20036;-73
2022/01/05 05:28:46;;;;;;;0.00;0.00;;;;;;;4.51;78.65;98368.63;5073795;28;20035;-73
2022/01/05 05:31:11;;;;;;;0.00;0.00;;;;;;;4.54;78.77;98380.56;5078676;28;20035;-73
2022/01/05 05:33:36;;;;;;;0.00;0.00;;;;;;;4.41;78.43;98365.91;5055466;28;20020;-74
2022/01/05 05:36:02;;;;;;;0.00;0.00;;;;;;;4.48;78.23;98385.03;5072796;28;20032;-75
2022/01/05 05:38:28;;;;;;;0.00;0.00;;;;;;;4.38;78.09;98375.16;5073218;28;20029;-74
2022/01/05 05:40:54;;;;;;;0.00;0.00;;;;;;;4.46;77.82;98395.06;5073075;28;20059;-74
2022/01/05 05:43:19;;;;;;;0.00;0.00;;;;;;;4.41;77.85;98398.47;5072555;28;20029;-73
2022/01/05 05:45:45;;;;;;;0.00;0.00;;;;;;;4.32;77.48;98392.00;5073287;28;20399;-74
2022/01/05 05:48:11;;;;;;;0.00;0.00;;;;;;;4.30;77.80;98394.13;5073018;28;20028;-73
2022/01/05 05:50:37;;;;;;;0.00;0.00;;;;;;;4.25;77.82;98396.75;5078883;28;20579;-73
2022/01/05 05:53:02;;;;;;;0.00;0.00;;;;;;;4.24;77.92;98406.50;5074905;28;20422;-74
2022/01/05 05:55:28;;;;;;;0.00;0.00;;;;;;;4.23;77.68;98407.56;5092717;28;20039;-73
2022/01/05 05:57:54;;;;;;;0.00;0.00;;;;;;;4.18;78.01;98390.84;5093166;28;20074;-73
2022/01/05 06:00:19;;;;;;;0.00;0.00;;;;;;;4.21;78.23;98391.16;5092899;28;20059;-74
2022/01/05 06:02:45;;;;;;;0.00;0.00;;;;;;;4.20;78.54;98386.91;5093016;28;20056;-74
2022/01/05 06:05:10;;;;;;;0.00;0.00;;;;;;;4.23;78.91;98398.81;5074010;28;20114;-73
2022/01/05 06:07:35;;;;;;;0.00;0.00;;;;;;;4.21;78.98;98380.56;5092368;28;20036;-73
2022/01/05 06:10:01;;;;;;;0.00;0.00;;;;;;;4.25;79.23;98379.00;5091859;28;20028;-74
2022/01/05 06:12:27;;;;;;;0.00;0.00;;;;;;;4.38;79.12;98398.97;5073949;28;20510;-75
2022/01/05 06:14:52;;;;;;;0.00;0.00;;;;;;;4.41;78.93;98403.75;5091550;28;20039;-73
2022/01/05 06:17:18;;;;;;;0.30;0.30;;;;;;;4.50;79.37;98412.03;5091518;28;20410;-73
2022/01/05 06:19:44;;;;;;;0.00;0.00;;;;;;;4.44;79.12;98394.50;5073837;28;20028;-73
2022/01/05 06:22:10;;;;;;;0.00;0.00;;;;;;;4.64;79.30;98417.75;5091769;28;20032;-73
2022/01/05 06:24:38;;;;;;;0.00;0.00;;;;;;;4.69;79.02;98406.34;5073755;28;20032;-73
2022/01/05 06:27:04;;;;;;;0.00;0.00;;;;;;;4.81;78.96;98412.31;5092077;28;20511;-73
2022/01/05 06:29:30;;;;;;;0.00;0.00;;;;;;;4.88;78.84;98415.53;5091745;28;20020;-74
2022/01/05 06:31:55;;;;;;;0.00;0.00;;;;;;;4.97;78.14;98416.66;5073351;28;20032;-75
2022/01/05 06:34:20;;;;;;;0.00;0.00;;;;;;;5.05;79.03;98415.38;5091448;28;20051;-73
2022/01/05 06:36:46;;;;;;;0.00;0.00;;;;;;;5.13;78.13;98412.25;5073388;28;20028;-74
2022/01/05 06:39:11;;;;;;;0.00;0.00;;;;;;;5.17;77.97;98409.88;5091162;28;20053;-75
2022/01/05 06:41:37;;;;;;;0.00;0.00;;;;;;;5.21;77.35;98404.88;5091673;28;20122;-74
2022/01/05 06:44:02;;;;;;;0.00;0.00;;;;;;;5.28;77.07;98408.91;5073175;28;20032;-75
2022/01/05 06:46:28;;;;;;;0.00;0.00;;;;;;;5.27;76.89;98394.06;5091001;28;20043;-75
2022/01/05 06:48:53;;;;;;;0.00;0.00;;;;;;;5.43;77.13;98421.44;5090847;28;20055;-75
2022/01/05 06:51:18;;;;;;;0.00;0.00;;;;;;;5.51;76.89;98424.66;5091579;28;20051;-75
2022/01/05 06:53:44;;;;;;;0.00;0.00;;;;;;;5.57;76.92;98419.13;5073164;28;20107;-75
2022/01/05 06:56:10;;;;;;;0.00;0.00;;;;;;;5.67;76.82;98415.72;5090581;28;20032;-73
2022/01/05 06:58:36;;;;;;;0.25;0.25;;;;;;;5.80;76.96;98426.91;5091418;28;20035;-74
2022/01/05 07:01:01;;;;;;;0.00;0.00;;;;;;;5.82;76.86;98407.00;5091279;28;20029;-75
2022/01/05 07:03:27;;;;;;;0.00;0.00;;;;;;;5.98;76.28;98423.81;5073140;28;20411;-75
2022/01/05 07:05:52;;;;;;;0.00;0.00;;;;;;;6.05;75.52;98419.09;5091609;28;20460;-75
2022/01/05 07:08:19;;;;;;;0.45;0.45;;;;;;;5.99;75.76;98406.81;5073370;28;20451;-75
2022/01/05 07:10:44;;;;;;;0.73;0.30;;;;;;;6.17;75.93;98426.00;5073645;28;20118;-75
2022/01/05 07:13:10;;;;;;;0.05;0.05;;;;;;;6.24;74.99;98423.91;5073252;28;20551;-75
2022/01/05 07:15:35;;;;;;;0.10;0.10;;;;;;;6.31;74.14;98419.13;5073636;28;20032;-74
2022/01/05 07:18:01;;;;;;;0.10;0.10;;;;;;;6.33;73.40;98413.56;5073423;28;20048;-74
2022/01/05 07:20:26;;;;;;;0.05;0.05;;;;;;;6.49;73.43;98433.75;5073275;28;20102;-73
2022/01/05 07:22:51;;;;;;;0.10;0.10;;;;;;;6.59;72.75;98434.81;5073481;28;20020;-74
2022/01/05 07:25:17;;;;;;;0.10;0.10;;;;;;;6.55;72.17;98426.59;5091307;28;20045;-74
2022/01/05 07:27:43;;;;;;;0.10;0.10;;;;;;;6.64;72.69;98432.97;5091149;28;20063;-74
2022/01/05 07:30:09;;;;;;;0.00;0.00;;;;;;;6.67;72.71;98434.31;5073150;28;20032;-74
2022/01/05 07:32:35;;;;;;;0.00;0.00;;;;;;;6.74;72.82;98437.50;5091467;28;20016;-73
2022/01/05 07:35:00;;;;;;;0.00;0.00;;;;;;;6.81;72.62;98434.56;5073141;28;20039;-73
2022/01/05 07:37:26;;;;;;;0.10;0.10;;;;;;;6.85;72.66;98430.34;5091214;28;20024;-74
2022/01/05 07:39:51;;;;;;;0.32;0.32;;;;;;;6.85;72.68;98431.13;5073028;28;20181;-74
2022/01/05 07:42:16;;;;;;;0.00;0.00;;;;;;;6.92;72.89;98441.50;5072923;28;20460;-74
2022/01/05 07:44:43;;;;;;;1.10;1.00;;;;;;;6.92;74.18;98438.84;5091469;28;20528;-74
2022/01/05 07:47:09;;;;;;;0.00;0.00;;;;;;;6.97;74.17;98430.84;5072747;28;20483;-73
2022/01/05 07:49:37;;;;;;;0.00;0.00;;;;;;;6.94;74.89;98426.06;5091279;28;20066;-73
2022/01/05 07:52:03;;;;;;;0.00;0.00;;;;;;;6.99;75.43;98423.38;5091231;28;20480;-72
2022/01/05 07:54:28;;;;;;;0.30;0.30;;;;;;;7.09;75.03;98427.91;5090224;28;20089;-74
2022/01/05 07:56:53;;;;;;;0.00;0.00;;;;;;;7.10;75.15;98439.34;5072904;28;20024;-74
2022/01/05 07:59:19;;;;;;;0.00;0.00;;;;;;;7.13;76.53;98438.78;5072549;28;20483;-74
2022/01/05 08:01:44;;;;;;;0.00;0.00;;;;;;;7.13;76.00;98433.47;5072872;28;20020;-74
2022/01/05 08:04:09;;;;;;;0.50;0.50;;;;;;;7.11;76.13;98432.97;5072622;28;20059;-74
2022/01/05 08:06:35;;;;;;;0.00;0.00;;;;;;;7.03;76.65;98424.47;5072393;28;20032;-74
2022/01/05 08:09:00;;;;;;;0.10;0.10;;;;;;;7.04;77.24;98417.28;5072880;28;20126;-74
2022/01/05 08:11:26;;;;;;;0.00;0.00;;;;;;;7.05;77.93;98424.19;5090785;28;20024;-74
2022/01/05 08:13:52;;;;;;;0.00;0.00;;;;;;;7.16;77.93;98447.03;5090694;28;20077;-74
2022/01/05 08:16:18;;;;;;;0.00;0.00;;;;;;;7.15;78.19;98442.81;5072559;28;20486;-74
2022/01/05 08:18:44;;;;;;;0.00;0.00;;;;;;;7.24;78.56;98436.91;5090474;28;20062;-74
2022/01/05 08:21:11;;;;;;;0.10;0.10;;;;;;;7.19;78.13;98422.56;5072612;28;20495;-74
2022/01/05 08:23:36;;;;;;;0.00;0.00;;;;;;;7.27;78.75;98441.72;5091070;28;20051;-74
2022/01/05 08:26:04;;;;;;;0.10;0.10;;;;;;;7.30;79.14;98433.19;5072316;28;20034;-75
2022/01/05 08:28:30;;;;;;;0.00;0.00;;;;;;;7.30;79.37;98443.81;5072410;28;20127;-75
2022/01/05 08:30:55;;;;;;;0.40;0.38;;;;;;;7.30;79.93;98444.63;5090664;28;20220;-75
2022/01/05 08:33:21;;;;;;;0.35;0.35;;;;;;;7.35;80.40;98452.59;5090450;28;20036;-74
2022/01/05 08:35:47;;;;;;;0.32;0.32;;;;;;;7.40;80.80;98453.66;5072539;28;20367;-74
2022/01/05 08:38:13;;;;;;;0.00;0.00;;;;;;;7.48;81.01;98456.56;5090469;28;20040;-76
2022/01/05 08:40:39;;;;;;;0.38;0.25;;;;;;;7.56;80.77;98449.13;5076378;28;20032;-74
2022/01/05 08:43:06;;;;;;;0.00;0.00;;;;;;;7.59;80.10;98438.72;5094288;28;20039;-74
2022/01/05 08:45:32;;;;;;;0.10;0.10;;;;;;;7.72;80.42;98445.31;5075959;28;20395;-74
2022/01/05 08:47:59;;;;;;;0.63;0.63;;;;;;;7.81;80.34;98451.69;5094250;28;20032;-74
2022/01/05 08:50:28;;;;;;;0.00;0.00;;;;;;;7.92;80.23;98457.78;5094352;28;20044;-75
2022/01/05 08:52:54;;;;;;;0.00;0.00;;;;;;;7.92;79.95;98435.66;5094686;28;20021;-75
2022/01/05 08:55:22;;;;;;;0.00;0.00;;;;;;;7.95;80.40;98430.59;5092791;28;20094;-75
2022/01/05 08:57:48;;;;;;;;;;;;;;;8.04;80.23;98438.78;5092176;28;20035;-74
2022/01/05 09:00:15;;;;;;;0.20;0.20;;;;;;;7.97;80.04;98432.97;5091444;28;19908;-74
2022/01/05 09:02:41;;;;;;;0.00;0.00;;;;;;;7.88;80.23;98418.66;5073211;28;20036;-74
2022/01/05 09:05:07;;;;;;;0.00;0.00;;;;;;;7.99;80.12;98434.28;5074273;28;20031;-75
2022/01/05 09:07:32;;;;;;;0.10;0.10;;;;;;;7.97;80.92;98411.66;5093433;28;20524;-74
2022/01/05 09:09:58;;;;;;;0.10;0.10;;;;;;;7.98;80.63;98419.41;5093940;28;20035;-74
2022/01/05 09:12:23;;;;;;;0.00;0.00;;;;;;;7.95;80.79;98413.81;5093717;28;20024;-74
2022/01/05 09:14:49;;;;;;;1.15;1.15;;;;;;;7.98;80.31;98403.41;5093436;28;20514;-74
2022/01/05 09:17:15;;;;;;;0.10;0.10;;;;;;;8.06;80.87;98404.69;5093376;28;20120;-74
2022/01/05 09:19:42;;;;;;;0.00;0.00;;;;;;;8.11;80.67;98402.00;5093878;28;20038;-74
2022/01/05 09:22:08;;;;;;;0.00;0.00;;;;;;;8.15;79.82;98397.75;5093879;28;20032;-75
2022/01/05 09:24:34;;;;;;;0.05;0.05;;;;;;;8.29;79.54;98403.22;5075521;28;20470;-75
2022/01/05 09:27:03;;;;;;;0.10;0.10;;;;;;;8.31;78.52;98382.44;5075731;28;20119;-75
2022/01/05 09:29:30;;;;;;;0.00;0.00;;;;;;;8.43;78.70;98381.28;5075316;28;20028;-74
2022/01/05 09:31:55;;;;;;;0.35;0.35;;;;;;;8.56;78.32;98395.91;5093658;28;20032;-74
2022/01/05 09:34:21;;;;;;;0.10;0.10;;;;;;;8.58;79.25;98378.56;5075273;28;20043;-73
2022/01/05 09:36:50;;;;;;;0.00;0.00;;;;;;;8.43;79.85;98376.75;5075490;28;20023;-74
2022/01/05 09:42:05;;;;;;;0.30;0.30;;;;;;;8.31;80.76;98376.31;5093308;28;20494;-74
2022/01/05 09:44:31;;;;;;;2.00;1.17;;;;;;;8.29;81.97;98386.47;5092858;28;20504;-74
2022/01/05 09:47:05;;;;;;;1.00;1.00;;;;;;;8.20;82.52;98380.13;5075042;28;20123;-74
2022/01/05 09:49:39;;;;;;;0.68;0.68;;;;;;;8.09;83.13;98372.22;5092005;28;20093;-74
2022/01/05 09:52:07;;;;;;;0.93;0.93;;;;;;;8.04;83.55;98369.56;5074979;28;20016;-75
2022/01/05 09:54:42;;;;;;;0.30;0.30;;;;;;;7.90;83.88;98349.94;5092786;28;20036;-74
2022/01/05 09:57:08;;;;;;;0.38;0.38;;;;;;;7.90;84.75;98357.91;5093191;28;20024;-74
2022/01/05 09:59:35;;;;;;;0.45;0.45;;;;;;;7.89;84.92;98345.69;5092699;28;20064;-75
2022/01/05 10:02:02;;;;;;;1.02;1.02;;;;;;;7.81;85.26;98350.53;5093148;28;20024;-75
2022/01/05 10:04:29;;;;;;;0.40;0.40;;;;;;;7.75;86.15;98370.25;5074679;28;20062;-75
2022/01/05 10:06:54;;;;;;;2.58;2.47;;;;;;;7.69;86.88;98350.84;5092650;28;20024;-74
2022/01/05 10:09:20;;;;;;;0.08;0.08;;;;;;;7.59;87.47;98339.44;5092877;28;20044;-75
2022/01/05 10:11:45;;;;;;;0.15;0.15;;;;;;;7.63;87.24;98351.13;5092548;28;20025;-74
2022/01/05 10:14:14;;;;;;;0.65;0.65;;;;;;;7.65;88.11;98346.34;5074465;28;20031;-75
2022/01/05 10:17:00;;;;;;;0.10;0.10;;;;;;;7.61;87.81;98332.78;5074423;28;20118;-74
2022/01/05 10:19:25;;;;;;;0.88;0.88;;;;;;;7.59;88.11;98326.16;5092336;28;20035;-74
2022/01/05 10:21:51;;;;;;;1.75;1.65;;;;;;;7.74;88.32;98341.22;5092712;28;20479;-74
2022/01/05 10:24:17;;;;;;;0.65;0.65;;;;;;;7.72;88.36;98330.88;5092497;28;20067;-74
2022/01/05 10:26:43;;;;;;;0.40;0.40;;;;;;;7.76;88.57;98339.09;5074195;28;20119;-74
2022/01/05 10:29:15;;;;;;;1.27;1.00;;;;;;;7.78;88.84;98332.44;5074684;28;20039;-75
2022/01/05 10:31:42;;;;;;;0.75;0.75;;;;;;;7.74;89.20;98335.91;5092632;28;20028;-74
2022/01/05 10:34:25;;;;;;;0.93;0.93;;;;;;;7.74;89.44;98336.72;5092200;28;20587;-75
2022/01/05 10:36:53;;;;;;;0.50;0.50;;;;;;;7.66;89.41;98329.31;5074236;28;20016;-75
2022/01/05 10:39:30;;;;;;;2.03;1.90;;;;;;;7.60;90.38;98315.22;5073912;28;20040;-75
2022/01/05 10:41:55;;;;;;;1.58;1.55;;;;;;;7.68;90.65;98317.31;5092532;28;20059;-74
2022/01/05 10:44:23;;;;;;;0.57;0.57;;;;;;;7.67;90.88;98315.72;5092169;28;20072;-75
2022/01/05 10:46:55;;;;;;;0.32;0.32;;;;;;;7.76;91.41;98315.16;5092160;28;20032;-74
2022/01/05 10:49:22;;;;;;;2.47;2.38;;;;;;;7.82;90.68;98314.03;5073372;28;20051;-74
2022/01/05 10:51:48;;;;;;;2.50;1.35;;;;;;;7.83;91.19;98300.44;5073866;28;20032;-74
2022/01/05 10:54:17;;;;;;;1.85;1.42;;;;;;;7.89;90.54;98311.88;5073639;28;20161;-74
2022/01/05 10:56:43;;;;;;;0.65;0.65;;;;;;;7.83;91.14;98283.69;5091769;28;20028;-74
2022/01/05 10:59:13;;;;;;;0.22;0.22;;;;;;;8.05;90.96;98299.25;5091543;28;20040;-73
2022/01/05 11:01:41;;;;;;;2.10;1.13;;;;;;;8.08;90.76;98290.72;5072609;28;20152;-74
2022/01/05 11:04:21;;;;;;;1.00;0.65;;;;;;;8.08;90.51;98273.94;5091876;28;20032;-74
2022/01/05 11:07:18;;;;;;;1.65;1.55;;;;;;;8.26;90.67;98286.56;5091845;28;20028;-74
2022/01/05 11:09:55;;;;;;;1.63;1.52;;;;;;;8.31;90.24;98272.41;5090511;28;20038;-74
2022/01/05 11:12:40;;;;;;;2.80;0.52;;;;;;;8.36;90.11;98268.91;5091510;28;20032;-76
2022/01/05 11:15:30;;;;;;;16.00;0.95;;;;;;;8.56;89.72;98275.97;5073258;28;20411;-74
2022/01/05 11:18:21;;;;;;;0.38;0.38;;;;;;;8.67;88.66;98265.97;5091140;28;20500;-74
2022/01/05 11:21:02;;;;;;;2.05;1.90;;;;;;;8.71;87.98;98265.13;5091738;28;20052;-75
2022/01/05 11:23:30;;;;;;;0.50;0.50;;;;;;;8.82;87.17;98257.81;5073045;28;20056;-74
2022/01/05 11:25:58;;;;;;;1.75;1.65;;;;;;;9.00;86.69;98269.63;5073074;28;20031;-75
2022/01/05 11:28:25;;;;;;;1.38;0.90;;;;;;;9.03;86.25;98269.03;5072515;28;20119;-74
2022/01/05 11:30:52;;;;;;;0.30;0.30;;;;;;;8.98;84.84;98255.78;5091180;28;20532;-74
2022/01/05 11:33:19;;;;;;;2.85;1.30;;;;;;;9.14;84.78;98277.72;5073193;28;20494;-75
2022/01/05 11:35:45;;;;;;;1.08;1.08;;;;;;;9.15;84.80;98262.53;5072919;28;20448;-75
2022/01/05 11:38:11;;;;;;;2.17;1.52;;;;;;;9.09;85.38;98251.94;5073183;28;20021;-74
2022/01/05 11:40:39;;;;;;;0.25;0.25;;;;;;;9.26;85.32;98277.31;5091249;28;20035;-75